< Typhoon 195307 1953 Season Typhoon 195309 >
Typhoon 195308 (OPHELIA)
General InformationTrack Information on Google Maps || Disaster Info.ResourceGoogle EarthGE AnimationAtom FeedGeoJSON
Detalied Best Track (Time Zone = UTC)
Year Month Day Hour Lat. Long. Pressure (hPa) Wind (kt) Class Image Chart
1953 8 9 12 17.7 127.0 1002 0 2 -- Chart
1953 8 9 18 17.5 126.2 1001 0 2 -- Chart
1953 8 10 00 17.8 125.8 1002 0 2 -- Chart
1953 8 10 06 18.1 126.3 1000 0 2 -- Chart
1953 8 10 12 18.0 126.7 1000 0 2 -- Chart
1953 8 10 18 17.0 126.9 1000 0 2 -- Chart
1953 8 11 00 16.4 126.0 998 0 2 -- Chart
1953 8 11 06 17.0 125.0 994 0 2 -- Chart
1953 8 11 12 18.1 123.9 992 0 2 -- Chart
1953 8 11 18 18.5 122.4 992 0 2 -- Chart
1953 8 12 00 18.6 120.5 990 0 9 -- Chart
1953 8 12 06 19.0 119.1 985 0 9 -- Chart
1953 8 12 12 19.0 117.9 980 0 9 -- Chart
1953 8 12 18 19.0 116.8 975 0 9 -- Chart
1953 8 13 00 19.0 115.5 970 0 9 -- Chart
1953 8 13 06 19.1 113.9 960 0 9 -- Chart
1953 8 13 12 19.4 112.3 960 0 9 -- Chart
1953 8 13 18 20.0 110.8 970 0 9 -- Chart
1953 8 14 00 20.0 109.0 975 0 9 -- Chart
1953 8 14 06 20.4 107.7 980 0 9 -- Chart
1953 8 14 12 20.6 107.1 985 0 9 -- Chart
1953 8 14 18 19.7 106.3 985 0 9 -- Chart
1953 8 15 00 19.5 105.6 985 0 9 -- Chart
1953 8 15 06 20.0 104.6 988 0 9 -- Chart
1953 8 15 12 20.0 103.5 988 0 9 -- Chart
1953 8 15 18 20.0 103.0 992 0 9 -- Chart
1953 8 16 00 19.0 102.5 997 0 9 -- Chart
1953 8 16 06 19.5 102.3 997 0 9 -- Chart
1953 8 16 12 20.0 103.0 998 0 6 -- Chart
Japan Meteorological Agency Best Track Data | Correction Date : 1989-06-01
< Typhoon 195307 1953 Season Typhoon 195309 >

Help